Tours-Val-de-Loire Airport

Airport
ICAO code: 
LFOT
IATA Code: 
TUF
Summary
ICAO Region: 
EUR
Territory: 
Location: 
, Centre
Serving: 
Tours
Elevation: 
357 ft
Coordinates: 
Aerial View: 
47° 25' 55.999" N, 0° 43' 39.382" E
Metar
Observation
LFOT 060530Z AUTO 29005KT 9999 SCT044 BKN050 04/03 Q1016 TEMPO 4000 BR BKN004
Station
Tours
Date/Time
2021-12-06 05:30:00
Wind direction
290°
Wind speed
05 kts
Lowest cloud amount
scattered clouds
Temperature
4°C
Dew point
3°C
Humidity
93%
QNH
1016 hPa
Weather condition
n/a

Runways

Designator Length Width Surface Rops
2/20 2404 45 CON Yes/Yes
Airport map: 
Aerial View: 

SKYbrary Partners:

Safety knowledge contributed by: